createdAt,value
2019-06-07T00:00:51.939Z,10.97
2019-06-07T00:03:27.435Z,9.93
2019-06-07T00:05:52.856Z,10.77
2019-06-07T00:08:27.943Z,10.40
2019-06-07T00:10:53.720Z,10.03
2019-06-07T00:13:23.687Z,10.10
2019-06-07T00:15:53.348Z,10.30
2019-06-07T00:18:25.967Z,9.63
2019-06-07T00:20:54.256Z,11.03
2019-06-07T00:23:23.729Z,11.83
2019-06-07T00:25:53.327Z,10.60
2019-06-07T00:28:23.000Z,10.30
2019-06-07T00:30:52.877Z,10.67
2019-06-07T00:33:24.512Z,11.00
2019-06-07T00:35:53.874Z,13.10
2019-06-07T00:38:23.354Z,10.33
2019-06-07T00:40:52.815Z,12.13
2019-06-07T00:43:27.978Z,11.40
2019-06-07T00:45:53.474Z,11.00
2019-06-07T00:48:31.320Z,12.13
2019-06-07T00:50:54.172Z,11.90
2019-06-07T00:53:31.875Z,12.53
2019-06-07T00:55:54.819Z,12.73
2019-06-07T00:58:27.613Z,12.13
2019-06-07T01:00:55.460Z,10.83
2019-06-07T01:03:25.901Z,12.23
2019-06-07T01:05:55.727Z,13.90
2019-06-07T01:08:29.903Z,12.77
2019-06-07T01:10:56.578Z,12.70
2019-06-07T01:13:26.906Z,11.87
2019-06-07T01:15:56.846Z,11.80
2019-06-07T01:18:37.372Z,11.87
2019-06-07T01:20:57.786Z,12.23
2019-06-07T01:25:58.529Z,12.17
2019-06-07T01:28:30.183Z,12.00
2019-06-07T01:30:59.487Z,11.37
2019-06-07T01:33:49.849Z,12.40
2019-06-07T01:36:00.615Z,12.20
2019-06-07T01:38:30.322Z,12.00
2019-06-07T01:40:59.831Z,10.80
2019-06-07T01:43:31.020Z,13.77
2019-06-07T01:46:00.486Z,11.57
2019-06-07T01:48:48.446Z,12.43
2019-06-07T01:51:01.107Z,13.40
2019-06-07T01:53:31.603Z,13.20
2019-06-07T01:56:01.406Z,13.50
2019-06-07T01:58:30.992Z,14.07
2019-06-07T02:01:00.731Z,14.10
2019-06-07T02:03:33.069Z,14.57
2019-06-07T02:06:01.565Z,14.57
2019-06-07T02:08:34.313Z,14.47
2019-06-07T02:11:02.744Z,14.73
2019-06-07T02:13:32.323Z,15.13
2019-06-07T02:16:01.948Z,14.37
2019-06-07T02:18:34.660Z,14.17
2019-06-07T02:21:02.735Z,13.63
2019-06-07T02:23:33.707Z,15.70
2019-06-07T02:26:03.615Z,14.27
2019-06-07T02:28:44.305Z,14.73
2019-06-07T02:31:04.500Z,14.23
2019-06-07T02:33:39.721Z,16.00
2019-06-07T02:36:05.275Z,14.63
2019-06-07T02:38:37.503Z,15.77
2019-06-07T02:41:06.784Z,13.00
2019-06-07T02:43:37.377Z,14.37
2019-06-07T02:46:25.036Z,14.57
2019-06-07T02:48:42.908Z,14.77
2019-06-07T02:51:12.373Z,13.23
2019-06-07T02:53:41.928Z,13.00
2019-06-07T02:56:37.871Z,14.10
2019-06-07T02:58:43.097Z,10.47
2019-06-07T03:01:12.697Z,11.97
2019-06-07T03:03:42.580Z,11.00
2019-06-07T03:06:14.317Z,10.43
2019-06-07T03:08:46.704Z,10.50
2019-06-07T03:11:17.106Z,8.97
2019-06-07T03:13:48.143Z,9.90
2019-06-07T03:16:36.785Z,9.60
2019-06-07T03:19:06.512Z,10.00
2019-06-07T03:21:41.445Z,10.20
2019-06-07T03:24:09.206Z,10.20
2019-06-07T03:27:30.490Z,11.50
2019-06-07T03:29:10.007Z,9.73
2019-06-07T03:31:45.985Z,11.17
2019-06-07T03:34:10.805Z,10.17
2019-06-07T03:36:40.420Z,10.07
2019-06-07T03:39:09.965Z,10.40
2019-06-07T03:41:50.274Z,9.20
2019-06-07T03:44:10.828Z,10.63
2019-06-07T03:46:41.615Z,9.70
2019-06-07T03:49:11.592Z,10.50
2019-06-07T03:51:41.257Z,10.33
2019-06-07T03:54:10.727Z,11.77
2019-06-07T03:56:41.025Z,12.30
2019-06-07T03:59:10.854Z,11.10
2019-06-07T04:01:41.288Z,10.00
2019-06-07T04:04:11.080Z,10.17
2019-06-07T04:06:42.562Z,8.73
2019-06-07T04:09:12.053Z,10.53
2019-06-07T04:11:41.512Z,8.63
2019-06-07T04:14:11.139Z,10.00
2019-06-07T04:16:44.413Z,9.70
2019-06-07T04:19:11.775Z,10.60
2019-06-07T04:21:42.946Z,12.13
2019-06-07T04:24:13.008Z,11.63
2019-06-07T04:26:43.749Z,12.50
2019-06-07T04:31:44.843Z,11.83
2019-06-07T04:34:14.363Z,11.83
2019-06-07T04:36:58.766Z,12.67
2019-06-07T04:39:17.811Z,13.80
2019-06-07T04:41:49.924Z,12.50
2019-06-07T04:44:21.443Z,11.90
2019-06-07T04:46:51.952Z,12.30
2019-06-07T04:49:22.982Z,10.47
2019-06-07T04:51:53.284Z,11.17
2019-06-07T04:54:22.749Z,10.37
2019-06-07T04:56:52.575Z,12.10
2019-06-07T05:00:01.038Z,12.00
2019-06-07T05:01:53.237Z,9.10
2019-06-07T05:04:22.687Z,10.03
2019-06-07T05:06:52.161Z,7.90
2019-06-07T05:09:21.619Z,9.97
2019-06-07T05:11:51.226Z,9.17
2019-06-07T05:14:20.676Z,10.37
2019-06-07T05:16:50.148Z,7.80
2019-06-07T05:19:19.599Z,9.00
2019-06-07T05:22:03.478Z,8.50
2019-06-07T05:24:20.505Z,8.27
2019-06-07T05:26:50.005Z,6.53
2019-06-07T05:29:19.610Z,6.20
2019-06-07T05:31:49.345Z,6.07
2019-06-07T05:34:18.871Z,5.10
2019-06-07T05:37:10.588Z,5.50
2019-06-07T05:39:19.804Z,6.27
2019-06-07T05:41:49.271Z,6.90
2019-06-07T05:44:18.725Z,5.40
2019-06-07T05:46:48.184Z,6.93
2019-06-07T05:49:17.639Z,5.60
2019-06-07T05:51:47.175Z,4.80
2019-06-07T05:54:16.637Z,4.73
2019-06-07T05:56:46.206Z,5.03
2019-06-07T05:59:15.669Z,5.23
2019-06-07T06:01:55.959Z,4.43
2019-06-07T06:04:16.373Z,3.30
2019-06-07T06:06:47.295Z,4.10
2019-06-07T06:09:17.260Z,3.20
2019-06-07T06:11:59.649Z,3.83
2019-06-07T06:14:17.967Z,3.80
2019-06-07T06:16:49.879Z,2.47
2019-06-07T06:19:18.632Z,2.40
2019-06-07T06:21:48.723Z,3.03
2019-06-07T06:24:18.324Z,2.87
2019-06-07T06:26:52.246Z,3.50
2019-06-07T06:29:18.947Z,3.37
2019-06-07T06:32:35.485Z,3.10
2019-06-07T06:34:19.576Z,3.60
2019-06-07T06:36:50.257Z,3.10
2019-06-07T06:39:20.113Z,2.43
2019-06-07T06:42:00.834Z,2.57
2019-06-07T06:44:21.080Z,2.30
2019-06-07T06:46:57.528Z,3.17
2019-06-07T06:49:21.712Z,2.30
2019-06-07T06:51:53.596Z,2.03
2019-06-07T06:54:39.546Z,1.63
2019-06-07T06:56:53.633Z,2.60
2019-06-07T06:59:40.031Z,84.30
2019-06-07T07:01:54.281Z,71.43
2019-06-07T07:04:23.764Z,155.23
2019-06-07T07:06:55.331Z,164.80
2019-06-07T07:09:26.042Z,181.23
2019-06-07T07:12:10.973Z,128.80
2019-06-07T07:14:26.756Z,138.60
2019-06-07T07:16:56.807Z,140.23
2019-06-07T07:19:26.594Z,87.33
2019-06-07T07:21:56.056Z,51.60
2019-06-07T07:24:25.613Z,76.07
2019-06-07T07:26:58.234Z,95.03
2019-06-07T07:29:26.280Z,89.10
2019-06-07T07:31:56.548Z,58.07
2019-06-07T07:34:36.351Z,71.80
2019-06-07T07:36:59.542Z,67.77
2019-06-07T07:39:28.757Z,78.87
2019-06-07T07:42:17.886Z,103.40
2019-06-07T07:44:29.419Z,107.63
2019-06-07T07:46:59.163Z,105.27
2019-06-07T07:49:28.651Z,157.17
2019-06-07T07:51:59.138Z,102.00
2019-06-07T07:54:28.905Z,217.67
2019-06-07T07:56:58.372Z,124.20
2019-06-07T07:59:41.954Z,112.73
2019-06-07T08:01:59.058Z,76.07
2019-06-07T08:05:12.114Z,3.60
2019-06-07T08:07:00.126Z,43.27
2019-06-07T08:09:29.604Z,89.47
2019-06-07T08:12:00.768Z,57.80
2019-06-07T08:14:30.358Z,45.73
2019-06-07T08:16:59.843Z,44.33
2019-06-07T08:19:29.324Z,74.73
2019-06-07T08:22:01.688Z,96.20
2019-06-07T08:24:30.139Z,89.30
2019-06-07T08:27:24.631Z,66.53
2019-06-07T08:29:44.475Z,57.87
2019-06-07T08:32:02.225Z,85.17
2019-06-07T08:34:31.757Z,84.73
2019-06-07T08:37:02.029Z,88.80
2019-06-07T08:39:31.705Z,80.43
2019-06-07T08:42:15.291Z,64.67
2019-06-07T08:44:32.424Z,12.47
2019-06-07T08:47:18.915Z,9.43
2019-06-07T08:49:33.068Z,47.40
2019-06-07T08:52:09.955Z,17.70
2019-06-07T08:54:33.924Z,43.67
2019-06-07T08:57:19.616Z,33.70
2019-06-07T08:59:34.885Z,145.10
2019-06-07T09:02:22.524Z,3.17
2019-06-07T09:04:35.709Z,3.10
2019-06-07T09:07:18.821Z,23.93
2019-06-07T09:09:36.713Z,12.03
2019-06-07T09:12:10.919Z,55.40
2019-06-07T09:14:59.103Z,55.60
2019-06-07T09:17:12.334Z,29.23
2019-06-07T09:19:40.447Z,15.93
2019-06-07T09:22:11.420Z,71.73
2019-06-07T09:24:41.418Z,41.37
2019-06-07T09:27:11.357Z,72.20
2019-06-07T09:29:41.284Z,22.47
2019-06-07T09:32:15.976Z,88.90
2019-06-07T09:34:41.933Z,59.03
2019-06-07T09:38:02.772Z,75.43
2019-06-07T09:39:42.925Z,64.47
2019-06-07T09:42:12.926Z,57.43
2019-06-07T09:44:42.646Z,71.33
2019-06-07T09:47:29.895Z,42.43
2019-06-07T09:49:43.426Z,43.40
2019-06-07T09:52:12.970Z,58.17
2019-06-07T09:55:04.372Z,77.10
2019-06-07T09:57:17.352Z,56.40
2019-06-07T09:59:46.805Z,62.40
2019-06-07T10:02:17.436Z,45.40
2019-06-07T10:04:46.900Z,49.23
2019-06-07T10:07:30.893Z,53.63
2019-06-07T10:12:19.280Z,17.00
2019-06-07T10:14:48.750Z,6.47
2019-06-07T10:17:18.389Z,7.30
2019-06-07T10:19:47.984Z,7.30
2019-06-07T10:22:17.454Z,31.23
2019-06-07T10:24:47.001Z,6.70
2019-06-07T10:27:16.471Z,7.80
2019-06-07T10:29:46.191Z,7.47
2019-06-07T10:32:15.651Z,11.80
2019-06-07T10:34:45.240Z,6.07
2019-06-07T10:37:15.763Z,6.03
2019-06-07T10:39:49.193Z,10.43
2019-06-07T10:42:16.818Z,33.03
2019-06-07T10:44:46.337Z,8.10
2019-06-07T10:47:15.800Z,10.10
2019-06-07T10:49:45.285Z,10.00
2019-06-07T10:52:14.781Z,14.03
2019-06-07T10:54:44.294Z,7.67
2019-06-07T10:57:16.032Z,14.13
2019-06-07T10:59:44.933Z,7.57
2019-06-07T11:02:14.412Z,7.23
2019-06-07T11:04:44.234Z,10.20
2019-06-07T11:07:14.548Z,7.97
2019-06-07T11:09:44.186Z,9.00
2019-06-07T11:12:15.308Z,7.03
2019-06-07T11:14:44.956Z,9.10
2019-06-07T11:17:15.717Z,12.87
2019-06-07T11:19:45.569Z,40.57
2019-06-07T11:22:15.141Z,6.77
2019-06-07T11:24:44.751Z,9.03
2019-06-07T11:27:16.289Z,12.00
2019-06-07T11:29:45.584Z,6.70
2019-06-07T11:32:15.451Z,10.73
2019-06-07T11:34:44.931Z,8.20
2019-06-07T11:37:16.183Z,13.90
2019-06-07T11:39:45.577Z,11.43
2019-06-07T11:42:15.051Z,6.17
2019-06-07T11:44:56.269Z,11.10
2019-06-07T11:47:15.933Z,10.50
2019-06-07T11:49:45.384Z,5.63
2019-06-07T11:52:15.770Z,5.23
2019-06-07T11:54:48.038Z,6.80
2019-06-07T11:57:17.319Z,8.70
2019-06-07T11:59:46.953Z,9.60
2019-06-07T12:02:17.617Z,9.97
2019-06-07T12:04:47.263Z,6.80
2019-06-07T12:07:17.658Z,7.17
2019-06-07T12:09:56.268Z,10.30
2019-06-07T12:12:20.456Z,6.67
2019-06-07T12:14:50.307Z,6.63
2019-06-07T12:17:19.860Z,6.07
2019-06-07T12:19:49.316Z,5.20
2019-06-07T12:22:20.067Z,11.20
2019-06-07T12:24:50.111Z,7.93
2019-06-07T12:27:20.742Z,8.97
2019-06-07T12:29:50.420Z,10.67
2019-06-07T12:32:21.440Z,9.63
2019-06-07T12:34:51.107Z,11.00
2019-06-07T12:37:23.909Z,11.80
2019-06-07T12:39:51.752Z,9.30
2019-06-07T12:42:22.635Z,9.77
2019-06-07T12:44:52.700Z,12.60
2019-06-07T12:47:23.241Z,14.93
2019-06-07T12:49:52.868Z,16.33
2019-06-07T12:52:23.426Z,15.13
2019-06-07T12:54:53.850Z,7.43
2019-06-07T12:57:24.175Z,21.10
2019-06-07T12:59:53.907Z,34.83
2019-06-07T13:02:24.077Z,12.13
2019-06-07T13:04:54.725Z,9.70
2019-06-07T13:07:24.380Z,8.20
2019-06-07T13:09:54.067Z,22.37
2019-06-07T13:12:23.799Z,56.27
2019-06-07T13:14:53.522Z,60.63
2019-06-07T13:17:24.175Z,60.30
2019-06-07T13:19:53.954Z,44.23
2019-06-07T13:22:24.420Z,59.80
2019-06-07T13:24:54.206Z,50.37
2019-06-07T13:27:24.528Z,25.27
2019-06-07T13:29:54.200Z,13.50
2019-06-07T13:32:23.937Z,20.60
2019-06-07T13:34:53.639Z,31.00
2019-06-07T13:37:23.456Z,44.23
2019-06-07T13:39:53.169Z,39.50
2019-06-07T13:42:22.894Z,31.10
2019-06-07T13:44:52.599Z,35.53
2019-06-07T13:47:23.124Z,36.57
2019-06-07T13:49:55.296Z,40.97
2019-06-07T13:52:24.260Z,39.17
2019-06-07T13:54:53.763Z,46.20
2019-06-07T13:57:24.374Z,13.23
2019-06-07T13:59:53.963Z,29.13
2019-06-07T14:02:25.663Z,18.77
2019-06-07T14:04:54.872Z,61.73
2019-06-07T14:07:26.377Z,40.23
2019-06-07T14:09:55.623Z,55.70
2019-06-07T14:12:26.197Z,66.53
2019-06-07T14:14:55.861Z,50.63
2019-06-07T14:17:25.385Z,41.83
2019-06-07T14:19:54.876Z,63.00
2019-06-07T14:22:24.825Z,47.43
2019-06-07T14:24:54.485Z,70.70
2019-06-07T14:27:25.380Z,85.70
2019-06-07T14:29:55.167Z,101.33
2019-06-07T14:32:26.492Z,56.07
2019-06-07T14:34:56.748Z,60.00
2019-06-07T14:37:26.846Z,69.47
2019-06-07T14:39:56.531Z,62.07
2019-06-07T14:42:27.110Z,74.33
2019-06-07T14:44:56.980Z,56.13
2019-06-07T14:47:27.851Z,62.53
2019-06-07T14:49:57.741Z,73.37
2019-06-07T14:52:28.384Z,93.00
2019-06-07T14:54:58.256Z,57.50
2019-06-07T14:57:29.027Z,73.53
2019-06-07T14:59:58.662Z,61.40
2019-06-07T15:02:28.426Z,72.67
2019-06-07T15:04:58.508Z,57.60
2019-06-07T15:07:28.699Z,55.77
2019-06-07T15:09:58.389Z,51.07
2019-06-07T15:12:29.220Z,40.37
2019-06-07T15:14:58.903Z,58.00
2019-06-07T15:17:28.664Z,30.27
2019-06-07T15:19:58.498Z,62.83
2019-06-07T15:22:28.169Z,58.60
2019-06-07T15:24:57.641Z,39.07
2019-06-07T15:27:27.262Z,75.10
2019-06-07T15:29:56.871Z,36.07
2019-06-07T15:32:28.115Z,26.33
2019-06-07T15:34:57.802Z,60.10
2019-06-07T15:37:28.368Z,21.70
2019-06-07T15:39:58.383Z,24.83
2019-06-07T15:42:42.705Z,22.80
2019-06-07T15:44:59.407Z,23.43
2019-06-07T15:47:29.575Z,23.83
2019-06-07T15:49:59.144Z,22.20
2019-06-07T15:52:28.744Z,22.60
2019-06-07T15:54:58.207Z,19.20
2019-06-07T15:57:27.701Z,26.23
2019-06-07T15:59:57.255Z,25.43
2019-06-07T16:02:26.732Z,23.63
2019-06-07T16:04:56.211Z,18.60
2019-06-07T16:07:25.688Z,20.57
2019-06-07T16:09:55.157Z,19.80
2019-06-07T16:12:24.842Z,18.93
2019-06-07T16:14:54.365Z,30.17
2019-06-07T16:17:23.847Z,19.90
2019-06-07T16:19:53.356Z,23.03
2019-06-07T16:22:22.835Z,17.43
2019-06-07T16:24:53.081Z,17.67
2019-06-07T16:27:22.731Z,19.90
2019-06-07T16:29:52.200Z,17.50
2019-06-07T16:32:21.680Z,38.43
2019-06-07T16:34:51.148Z,42.60
2019-06-07T16:37:20.635Z,40.93
2019-06-07T16:39:50.096Z,24.47
2019-06-07T16:42:19.576Z,22.10
2019-06-07T16:44:49.049Z,21.37
2019-06-07T16:47:18.606Z,21.70
2019-06-07T16:49:49.215Z,17.43
2019-06-07T16:52:18.837Z,45.50
2019-06-07T16:54:48.300Z,21.33
2019-06-07T16:57:18.081Z,18.93
2019-06-07T16:59:49.207Z,19.10
2019-06-07T17:02:19.156Z,35.67
2019-06-07T17:04:48.957Z,44.07
2019-06-07T17:07:18.431Z,19.57
2019-06-07T17:09:49.433Z,25.53
2019-06-07T17:12:19.224Z,20.17
2019-06-07T17:14:48.783Z,21.37
2019-06-07T17:17:18.361Z,19.87
2019-06-07T17:19:49.089Z,19.27
2019-06-07T17:22:19.097Z,20.17
2019-06-07T17:24:49.839Z,20.10
2019-06-07T17:27:19.748Z,17.50
2019-06-07T17:29:50.092Z,19.33
2019-06-07T17:32:19.797Z,18.87
2019-06-07T17:34:50.297Z,21.03
2019-06-07T17:37:20.021Z,22.20
2019-06-07T17:39:50.825Z,15.30
2019-06-07T17:42:20.498Z,15.60
2019-06-07T17:44:51.346Z,17.10
2019-06-07T17:47:21.093Z,15.87
2019-06-07T17:49:52.012Z,17.17
2019-06-07T17:52:21.950Z,14.60
2019-06-07T17:54:52.389Z,15.97
2019-06-07T17:57:22.074Z,17.83
2019-06-07T17:59:52.613Z,15.47
2019-06-07T18:02:22.782Z,13.50
2019-06-07T18:04:53.548Z,13.47
2019-06-07T18:07:24.660Z,14.00
2019-06-07T18:09:55.449Z,13.70
2019-06-07T18:12:25.067Z,13.57
2019-06-07T18:14:54.556Z,15.53
2019-06-07T18:17:34.083Z,14.17
2019-06-07T18:19:55.304Z,14.30
2019-06-07T18:22:24.892Z,12.90
2019-06-07T18:25:06.574Z,14.23
2019-06-07T18:27:36.097Z,13.33
2019-06-07T18:30:11.670Z,15.10
2019-06-07T18:32:41.179Z,17.73
2019-06-07T18:35:12.262Z,14.57
2019-06-07T18:37:41.792Z,15.20
2019-06-07T18:40:11.422Z,20.93
2019-06-07T18:42:41.114Z,18.33
2019-06-07T18:45:10.584Z,15.63
2019-06-07T18:47:40.136Z,11.63
2019-06-07T18:50:10.752Z,13.13
2019-06-07T18:52:41.985Z,14.10
2019-06-07T18:55:12.209Z,15.23
2019-06-07T18:57:41.739Z,15.73
2019-06-07T19:00:16.412Z,13.77
2019-06-07T19:02:47.438Z,15.03
2019-06-07T19:05:17.335Z,15.13
2019-06-07T19:07:48.296Z,15.60
2019-06-07T19:10:20.513Z,13.50
2019-06-07T19:12:50.936Z,12.10
2019-06-07T19:15:21.539Z,12.50
2019-06-07T19:17:52.119Z,14.50
2019-06-07T19:20:22.981Z,13.13
2019-06-07T19:22:52.583Z,14.77
2019-06-07T19:25:22.266Z,13.67
2019-06-07T19:27:52.722Z,12.60
2019-06-07T19:30:22.493Z,15.13
2019-06-07T19:32:53.138Z,14.00
2019-06-07T19:35:23.142Z,12.87
2019-06-07T19:37:53.785Z,23.73
2019-06-07T19:40:23.676Z,11.50
2019-06-07T19:42:54.087Z,26.57
2019-06-07T19:45:30.376Z,26.00
2019-06-07T19:47:56.441Z,14.50
2019-06-07T19:50:26.308Z,25.30
2019-06-07T19:52:57.050Z,15.70
2019-06-07T19:55:26.893Z,34.60
2019-06-07T19:57:57.508Z,45.30
2019-06-07T20:00:27.572Z,14.47
2019-06-07T20:02:57.812Z,19.67
2019-06-07T20:05:27.787Z,16.90
2019-06-07T20:07:58.484Z,14.30
2019-06-07T20:10:28.327Z,14.30
2019-06-07T20:12:58.656Z,13.57
2019-06-07T20:15:29.709Z,10.47
2019-06-07T20:17:59.423Z,12.30
2019-06-07T20:20:30.051Z,38.30
2019-06-07T20:23:00.946Z,14.27
2019-06-07T20:25:30.898Z,12.83
2019-06-07T20:28:01.398Z,11.40
2019-06-07T20:30:31.262Z,13.40
2019-06-07T20:33:01.825Z,13.10
2019-06-07T20:35:31.617Z,11.20
2019-06-07T20:38:01.559Z,14.53
2019-06-07T20:40:31.332Z,28.27
2019-06-07T20:43:01.484Z,13.80
2019-06-07T20:45:33.997Z,14.30
2019-06-07T20:48:04.065Z,19.07
2019-06-07T20:50:33.783Z,19.90
2019-06-07T20:53:03.694Z,24.53
2019-06-07T20:55:34.463Z,18.33
2019-06-07T20:58:05.438Z,6.87
2019-06-07T21:00:35.253Z,7.70
2019-06-07T21:03:05.316Z,3.47
2019-06-07T21:05:35.040Z,5.50
2019-06-07T21:08:08.119Z,4.90
2019-06-07T21:10:35.847Z,4.50
2019-06-07T21:13:05.887Z,4.43
2019-06-07T21:15:47.850Z,6.60
2019-06-07T21:18:16.276Z,6.63
2019-06-07T21:20:37.844Z,6.63
2019-06-07T21:23:07.324Z,9.20
2019-06-07T21:25:36.784Z,6.57
2019-06-07T21:28:07.237Z,10.50
2019-06-07T21:30:36.803Z,16.10
2019-06-07T21:33:07.542Z,8.57
2019-06-07T21:35:37.181Z,9.70
2019-06-07T21:38:07.769Z,9.33
2019-06-07T21:40:37.320Z,13.77
2019-06-07T21:43:08.620Z,12.57
2019-06-07T21:45:38.336Z,14.30
2019-06-07T21:48:08.822Z,16.13
2019-06-07T21:50:38.460Z,15.10
2019-06-07T21:53:08.595Z,17.03
2019-06-07T21:55:38.193Z,18.43
2019-06-07T21:58:09.013Z,12.50
2019-06-07T22:01:04.351Z,10.77
2019-06-07T22:03:34.065Z,10.40
2019-06-07T22:06:03.612Z,9.80
2019-06-07T22:08:33.323Z,11.57
2019-06-07T22:11:03.794Z,11.57
2019-06-07T22:13:33.701Z,8.30
2019-06-07T22:16:04.059Z,7.07
2019-06-07T22:18:33.647Z,8.53
2019-06-07T22:21:04.310Z,8.40
2019-06-07T22:23:33.921Z,6.00
2019-06-07T22:26:03.376Z,8.10
2019-06-07T22:28:32.848Z,7.60
2019-06-07T22:31:02.306Z,6.70
2019-06-07T22:33:31.852Z,7.77
2019-06-07T22:36:01.312Z,7.27
2019-06-07T22:38:30.850Z,6.60
2019-06-07T22:41:00.548Z,5.37
2019-06-07T22:43:30.107Z,8.20
2019-06-07T22:45:59.575Z,6.03
2019-06-07T22:48:29.106Z,5.43
2019-06-07T22:51:00.211Z,5.17
2019-06-07T22:53:29.844Z,5.33
2019-06-07T22:56:00.937Z,6.50
2019-06-07T22:58:30.775Z,8.30
2019-06-07T23:01:00.624Z,11.93
2019-06-07T23:03:30.096Z,8.70
2019-06-07T23:05:59.638Z,7.90
2019-06-07T23:08:29.315Z,6.00
2019-06-07T23:10:58.884Z,5.90
2019-06-07T23:13:28.352Z,6.60
2019-06-07T23:15:57.873Z,5.50
2019-06-07T23:18:27.345Z,6.10
2019-06-07T23:20:56.792Z,5.93
2019-06-07T23:23:26.585Z,9.00
2019-06-07T23:25:56.039Z,9.60
2019-06-07T23:28:25.584Z,8.27
2019-06-07T23:30:55.163Z,8.90
2019-06-07T23:33:24.777Z,10.60
2019-06-07T23:35:54.397Z,10.23
2019-06-07T23:38:24.017Z,10.30
2019-06-07T23:40:53.473Z,9.30
2019-06-07T23:43:22.953Z,10.70
2019-06-07T23:45:52.411Z,8.50
2019-06-07T23:48:21.867Z,8.60
2019-06-07T23:50:51.328Z,7.97
2019-06-07T23:53:22.050Z,7.30
2019-06-07T23:55:51.860Z,5.90
2019-06-07T23:58:22.246Z,4.60
